sensor_id;sensor_type;location;lat;lon;timestamp;pressure;altitude;pressure_sealevel;temperature;humidity
53908;BME280;40469;47.998;7.794;2023-01-16T00:01:19;97924.88;;;5.06;100.00
53908;BME280;40469;47.998;7.794;2023-01-16T00:03:44;97919.69;;;5.07;100.00
53908;BME280;40469;47.998;7.794;2023-01-16T00:06:10;97907.66;;;5.03;100.00
53908;BME280;40469;47.998;7.794;2023-01-16T00:08:35;97905.94;;;4.98;100.00
53908;BME280;40469;47.998;7.794;2023-01-16T00:11:00;97897.28;;;5.06;100.00
53908;BME280;40469;47.998;7.794;2023-01-16T00:13:26;97892.97;;;5.07;100.00
53908;BME280;40469;47.998;7.794;2023-01-16T00:15:51;97880.88;;;5.10;100.00
53908;BME280;40469;47.998;7.794;2023-01-16T00:18:17;97870.50;;;5.15;100.00
53908;BME280;40469;47.998;7.794;2023-01-16T00:20:43;97871.38;;;5.16;100.00
53908;BME280;40469;47.998;7.794;2023-01-16T00:23:10;97866.19;;;5.14;100.00
53908;BME280;40469;47.998;7.794;2023-01-16T00:25:39;97860.19;;;5.10;100.00
53908;BME280;40469;47.998;7.794;2023-01-16T00:28:06;97854.97;;;5.15;100.00
53908;BME280;40469;47.998;7.794;2023-01-16T00:30:32;97848.09;;;5.12;100.00
53908;BME280;40469;47.998;7.794;2023-01-16T00:32:57;97846.38;;;5.11;100.00
53908;BME280;40469;47.998;7.794;2023-01-16T00:35:22;97839.44;;;5.17;100.00
53908;BME280;40469;47.998;7.794;2023-01-16T00:37:48;97834.25;;;5.17;100.00
53908;BME280;40469;47.998;7.794;2023-01-16T00:40:13;97823.94;;;5.13;100.00
53908;BME280;40469;47.998;7.794;2023-01-16T00:42:38;97818.75;;;5.15;100.00
53908;BME280;40469;47.998;7.794;2023-01-16T00:45:04;97808.44;;;5.09;100.00
53908;BME280;40469;47.998;7.794;2023-01-16T00:47:29;97805.03;;;5.05;100.00
53908;BME280;40469;47.998;7.794;2023-01-16T00:49:55;97801.53;;;5.11;100.00
53908;BME280;40469;47.998;7.794;2023-01-16T00:52:20;97796.34;;;5.12;100.00
53908;BME280;40469;47.998;7.794;2023-01-16T00:54:45;97797.19;;;5.11;100.00
53908;BME280;40469;47.998;7.794;2023-01-16T00:57:11;97795.50;;;5.09;100.00
53908;BME280;40469;47.998;7.794;2023-01-16T00:59:36;97789.34;;;5.24;100.00
53908;BME280;40469;47.998;7.794;2023-01-16T01:02:02;97792.00;;;5.19;100.00
53908;BME280;40469;47.998;7.794;2023-01-16T01:04:28;97773.81;;;5.24;100.00
53908;BME280;40469;47.998;7.794;2023-01-16T01:06:54;97760.03;;;5.23;100.00
53908;BME280;40469;47.998;7.794;2023-01-16T01:09:19;97757.34;;;5.39;100.00
53908;BME280;40469;47.998;7.794;2023-01-16T01:11:44;97746.16;;;5.32;100.00
53908;BME280;40469;47.998;7.794;2023-01-16T01:14:10;97733.31;;;5.26;100.00
53908;BME280;40469;47.998;7.794;2023-01-16T01:16:35;97742.75;;;5.30;100.00
53908;BME280;40469;47.998;7.794;2023-01-16T01:19:00;97740.16;;;5.31;100.00
53908;BME280;40469;47.998;7.794;2023-01-16T01:21:26;97720.19;;;5.41;100.00
53908;BME280;40469;47.998;7.794;2023-01-16T01:23:51;97729.69;;;5.42;100.00
53908;BME280;40469;47.998;7.794;2023-01-16T01:26:17;97721.94;;;5.41;100.00
53908;BME280;40469;47.998;7.794;2023-01-16T01:28:43;97702.88;;;5.51;100.00
53908;BME280;40469;47.998;7.794;2023-01-16T01:31:11;97701.94;;;5.55;100.00
53908;BME280;40469;47.998;7.794;2023-01-16T01:33:37;97687.22;;;5.62;100.00
53908;BME280;40469;47.998;7.794;2023-01-16T01:36:04;97683.66;;;5.74;100.00
53908;BME280;40469;47.998;7.794;2023-01-16T01:38:29;97674.25;;;5.65;100.00
53908;BME280;40469;47.998;7.794;2023-01-16T01:40:55;97671.56;;;5.71;100.00
53908;BME280;40469;47.998;7.794;2023-01-16T01:43:21;97650.75;;;5.80;100.00
53908;BME280;40469;47.998;7.794;2023-01-16T01:45:52;97659.44;;;5.75;100.00
53908;BME280;40469;47.998;7.794;2023-01-16T01:48:27;97643.03;;;5.77;100.00
53908;BME280;40469;47.998;7.794;2023-01-16T01:51:07;97639.63;;;5.72;100.00
53908;BME280;40469;47.998;7.794;2023-01-16T01:53:46;97621.41;;;5.78;100.00
53908;BME280;40469;47.998;7.794;2023-01-16T01:56:20;97616.31;;;5.72;100.00
53908;BME280;40469;47.998;7.794;2023-01-16T01:58:49;97613.72;;;5.74;100.00
53908;BME280;40469;47.998;7.794;2023-01-16T02:01:17;97607.75;;;5.68;100.00
53908;BME280;40469;47.998;7.794;2023-01-16T02:03:51;97595.69;;;5.64;100.00
53908;BME280;40469;47.998;7.794;2023-01-16T02:06:20;97595.78;;;5.58;100.00
53908;BME280;40469;47.998;7.794;2023-01-16T02:08:48;97586.22;;;5.65;100.00
53908;BME280;40469;47.998;7.794;2023-01-16T02:11:20;97582.72;;;5.66;100.00
53908;BME280;40469;47.998;7.794;2023-01-16T02:13:57;97584.31;;;5.78;100.00
53908;BME280;40469;47.998;7.794;2023-01-16T02:16:23;97567.00;;;5.80;100.00
53908;BME280;40469;47.998;7.794;2023-01-16T02:19:24;97551.34;;;5.87;100.00
53908;BME280;40469;47.998;7.794;2023-01-16T02:30:56;97509.00;;;5.92;100.00
53908;BME280;40469;47.998;7.794;2023-01-16T02:33:44;97508.13;;;5.93;100.00
53908;BME280;40469;47.998;7.794;2023-01-16T02:36:20;97496.94;;;5.91;100.00
53908;BME280;40469;47.998;7.794;2023-01-16T02:47:12;97461.47;;;5.96;100.00
53908;BME280;40469;47.998;7.794;2023-01-16T02:52:40;97437.34;;;5.91;100.00
53908;BME280;40469;47.998;7.794;2023-01-16T02:55:22;97444.19;;;5.96;100.00
53908;BME280;40469;47.998;7.794;2023-01-16T02:57:57;97421.91;;;5.84;100.00
53908;BME280;40469;47.998;7.794;2023-01-16T03:00:24;97423.63;;;5.85;100.00
53908;BME280;40469;47.998;7.794;2023-01-16T03:02:49;97413.97;;;5.95;100.00
53908;BME280;40469;47.998;7.794;2023-01-16T03:05:15;97415.06;;;5.80;100.00
53908;BME280;40469;47.998;7.794;2023-01-16T03:08:02;97390.84;;;5.84;100.00
53908;BME280;40469;47.998;7.794;2023-01-16T03:10:46;97380.53;;;5.81;100.00
53908;BME280;40469;47.998;7.794;2023-01-16T03:16:18;97365.75;;;5.88;100.00
53908;BME280;40469;47.998;7.794;2023-01-16T03:24:10;97331.13;;;5.92;100.00
53908;BME280;40469;47.998;7.794;2023-01-16T03:26:43;97319.78;;;6.01;100.00
53908;BME280;40469;47.998;7.794;2023-01-16T03:29:17;97312.16;;;5.92;100.00
53908;BME280;40469;47.998;7.794;2023-01-16T03:32:25;97287.91;;;5.97;100.00
53908;BME280;40469;47.998;7.794;2023-01-16T03:35:01;97300.53;;;6.14;100.00
53908;BME280;40469;47.998;7.794;2023-01-16T03:37:34;97282.72;;;5.97;100.00
53908;BME280;40469;47.998;7.794;2023-01-16T03:40:08;97272.91;;;6.13;100.00
53908;BME280;40469;47.998;7.794;2023-01-16T03:45:39;97245.41;;;6.07;100.00
53908;BME280;40469;47.998;7.794;2023-01-16T03:48:41;97233.97;;;6.18;100.00
53908;BME280;40469;47.998;7.794;2023-01-16T03:51:15;97241.78;;;6.15;100.00
53908;BME280;40469;47.998;7.794;2023-01-16T03:53:45;97221.63;;;6.29;100.00
53908;BME280;40469;47.998;7.794;2023-01-16T03:56:48;97207.88;;;6.25;100.00
53908;BME280;40469;47.998;7.794;2023-01-16T03:59:16;97213.78;;;6.34;100.00
53908;BME280;40469;47.998;7.794;2023-01-16T04:04:27;97178.75;;;6.14;100.00
53908;BME280;40469;47.998;7.794;2023-01-16T04:07:09;97164.34;;;6.01;100.00
53908;BME280;40469;47.998;7.794;2023-01-16T04:09:53;97162.84;;;5.87;100.00
53908;BME280;40469;47.998;7.794;2023-01-16T04:12:23;97149.84;;;5.91;100.00
53908;BME280;40469;47.998;7.794;2023-01-16T04:14:55;97143.00;;;5.88;100.00
53908;BME280;40469;47.998;7.794;2023-01-16T04:17:22;97137.25;;;5.74;100.00
53908;BME280;40469;47.998;7.794;2023-01-16T04:19:48;97134.81;;;5.64;100.00
53908;BME280;40469;47.998;7.794;2023-01-16T04:22:21;97122.81;;;5.60;100.00
53908;BME280;40469;47.998;7.794;2023-01-16T04:24:48;97116.88;;;5.55;100.00
53908;BME280;40469;47.998;7.794;2023-01-16T04:27:15;97108.25;;;5.56;100.00
53908;BME280;40469;47.998;7.794;2023-01-16T04:29:40;97103.09;;;5.55;100.00
53908;BME280;40469;47.998;7.794;2023-01-16T04:32:05;97106.38;;;5.63;100.00
53908;BME280;40469;47.998;7.794;2023-01-16T04:34:31;97084.19;;;5.51;100.00
53908;BME280;40469;47.998;7.794;2023-01-16T04:36:56;97083.22;;;5.55;100.00
53908;BME280;40469;47.998;7.794;2023-01-16T04:39:22;97067.53;;;5.63;100.00
53908;BME280;40469;47.998;7.794;2023-01-16T04:41:47;97053.97;;;5.51;100.00
53908;BME280;40469;47.998;7.794;2023-01-16T04:44:15;97052.06;;;5.61;100.00
53908;BME280;40469;47.998;7.794;2023-01-16T04:46:41;97039.78;;;5.69;100.00
53908;BME280;40469;47.998;7.794;2023-01-16T04:49:06;97031.28;;;5.63;100.00
53908;BME280;40469;47.998;7.794;2023-01-16T04:51:32;97021.59;;;5.73;100.00
53908;BME280;40469;47.998;7.794;2023-01-16T04:53:57;97012.03;;;5.76;100.00
53908;BME280;40469;47.998;7.794;2023-01-16T04:56:23;97000.72;;;5.80;100.00
53908;BME280;40469;47.998;7.794;2023-01-16T04:58:48;96988.63;;;5.81;100.00
53908;BME280;40469;47.998;7.794;2023-01-16T05:01:17;96986.06;;;5.79;100.00
53908;BME280;40469;47.998;7.794;2023-01-16T05:03:42;96975.75;;;5.78;100.00
53908;BME280;40469;47.998;7.794;2023-01-16T05:06:08;96971.47;;;5.75;100.00
53908;BME280;40469;47.998;7.794;2023-01-16T05:08:33;96960.13;;;5.82;100.00
53908;BME280;40469;47.998;7.794;2023-01-16T05:10:58;96955.94;;;5.75;100.00
53908;BME280;40469;47.998;7.794;2023-01-16T05:13:29;96943.88;;;5.76;100.00
53908;BME280;40469;47.998;7.794;2023-01-16T05:15:54;96931.69;;;5.79;100.00
53908;BME280;40469;47.998;7.794;2023-01-16T05:18:20;96926.44;;;5.82;100.00
53908;BME280;40469;47.998;7.794;2023-01-16T05:20:46;96917.69;;;5.88;100.00
53908;BME280;40469;47.998;7.794;2023-01-16T05:23:11;96912.38;;;5.93;100.00
53908;BME280;40469;47.998;7.794;2023-01-16T05:25:37;96902.09;;;5.89;100.00
53908;BME280;40469;47.998;7.794;2023-01-16T05:28:03;96893.44;;;5.91;100.00
53908;BME280;40469;47.998;7.794;2023-01-16T05:30:28;96881.31;;;5.91;100.00
53908;BME280;40469;47.998;7.794;2023-01-16T05:32:54;96870.91;;;5.94;100.00
53908;BME280;40469;47.998;7.794;2023-01-16T05:35:19;96863.97;;;5.95;100.00
53908;BME280;40469;47.998;7.794;2023-01-16T05:37:45;96845.91;;;5.93;100.00
53908;BME280;40469;47.998;7.794;2023-01-16T05:40:11;96829.25;;;6.03;100.00
53908;BME280;40469;47.998;7.794;2023-01-16T05:42:36;96823.94;;;6.08;100.00
53908;BME280;40469;47.998;7.794;2023-01-16T05:45:02;96820.00;;;6.26;100.00
53908;BME280;40469;47.998;7.794;2023-01-16T05:47:28;96812.28;;;6.24;100.00
53908;BME280;40469;47.998;7.794;2023-01-16T05:49:53;96799.75;;;6.40;100.00
53908;BME280;40469;47.998;7.794;2023-01-16T05:52:19;96789.44;;;6.39;100.00
53908;BME280;40469;47.998;7.794;2023-01-16T05:54:44;96779.75;;;6.44;100.00
53908;BME280;40469;47.998;7.794;2023-01-16T05:57:10;96769.84;;;6.29;100.00
53908;BME280;40469;47.998;7.794;2023-01-16T05:59:35;96765.28;;;6.37;100.00
53908;BME280;40469;47.998;7.794;2023-01-16T06:02:00;96760.25;;;6.32;100.00
53908;BME280;40469;47.998;7.794;2023-01-16T06:04:26;96752.47;;;6.32;100.00
53908;BME280;40469;47.998;7.794;2023-01-16T06:06:51;96738.44;;;6.39;100.00
53908;BME280;40469;47.998;7.794;2023-01-16T06:09:16;96738.53;;;6.36;100.00
53908;BME280;40469;47.998;7.794;2023-01-16T06:11:42;96726.38;;;6.38;100.00
53908;BME280;40469;47.998;7.794;2023-01-16T06:14:07;96723.81;;;6.37;100.00
53908;BME280;40469;47.998;7.794;2023-01-16T06:16:33;96709.38;;;6.28;100.00
53908;BME280;40469;47.998;7.794;2023-01-16T06:18:59;96704.59;;;6.44;100.00
53908;BME280;40469;47.998;7.794;2023-01-16T06:21:25;96698.41;;;6.50;100.00
53908;BME280;40469;47.998;7.794;2023-01-16T06:23:50;96687.84;;;6.56;99.56
53908;BME280;40469;47.998;7.794;2023-01-16T06:26:15;96687.16;;;6.49;99.57
53908;BME280;40469;47.998;7.794;2023-01-16T06:28:41;96677.41;;;6.57;99.21
53908;BME280;40469;47.998;7.794;2023-01-16T06:31:07;96668.69;;;6.60;97.45
53908;BME280;40469;47.998;7.794;2023-01-16T06:33:32;96661.03;;;6.57;97.71
53908;BME280;40469;47.998;7.794;2023-01-16T06:35:58;96653.03;;;6.63;96.80
53908;BME280;40469;47.998;7.794;2023-01-16T06:38:23;96634.47;;;6.77;93.15
53908;BME280;40469;47.998;7.794;2023-01-16T06:40:48;96619.91;;;6.99;89.44
53908;BME280;40469;47.998;7.794;2023-01-16T06:43:14;96613.91;;;6.97;89.38
53908;BME280;40469;47.998;7.794;2023-01-16T06:45:42;96611.31;;;6.97;89.09
53908;BME280;40469;47.998;7.794;2023-01-16T06:48:07;96620.00;;;6.96;89.82
53908;BME280;40469;47.998;7.794;2023-01-16T06:50:33;96608.81;;;6.94;90.53
53908;BME280;40469;47.998;7.794;2023-01-16T06:52:58;96591.97;;;7.08;87.16
53908;BME280;40469;47.998;7.794;2023-01-16T06:55:24;96588.75;;;6.99;88.16
53908;BME280;40469;47.998;7.794;2023-01-16T06:57:49;96584.50;;;6.97;87.95
53908;BME280;40469;47.998;7.794;2023-01-16T07:00:15;96585.25;;;7.00;88.15
53908;BME280;40469;47.998;7.794;2023-01-16T07:02:40;96582.19;;;7.14;87.38
53908;BME280;40469;47.998;7.794;2023-01-16T07:05:09;96584.16;;;7.08;87.90
53908;BME280;40469;47.998;7.794;2023-01-16T07:07:35;96578.75;;;7.14;86.32
53908;BME280;40469;47.998;7.794;2023-01-16T07:10:03;96566.41;;;7.20;85.58
53908;BME280;40469;47.998;7.794;2023-01-16T07:12:28;96561.88;;;7.27;84.44
53908;BME280;40469;47.998;7.794;2023-01-16T07:14:54;96567.25;;;7.21;85.97
53908;BME280;40469;47.998;7.794;2023-01-16T07:17:37;96559.56;;;7.18;86.34
53908;BME280;40469;47.998;7.794;2023-01-16T07:20:21;96550.84;;;7.20;86.24
53908;BME280;40469;47.998;7.794;2023-01-16T07:23:35;96545.78;;;7.41;81.37
53908;BME280;40469;47.998;7.794;2023-01-16T07:26:02;96537.25;;;7.37;80.84
53908;BME280;40469;47.998;7.794;2023-01-16T07:28:29;96539.06;;;7.35;81.34
53908;BME280;40469;47.998;7.794;2023-01-16T07:30:55;96540.97;;;7.30;83.20
53908;BME280;40469;47.998;7.794;2023-01-16T07:33:22;96531.66;;;7.25;85.11
53908;BME280;40469;47.998;7.794;2023-01-16T07:35:48;96520.25;;;7.29;84.33
53908;BME280;40469;47.998;7.794;2023-01-16T07:38:13;96540.97;;;7.30;83.28
53908;BME280;40469;47.998;7.794;2023-01-16T07:40:38;96533.22;;;7.29;82.98
53908;BME280;40469;47.998;7.794;2023-01-16T07:43:04;96534.66;;;7.37;82.16
53908;BME280;40469;47.998;7.794;2023-01-16T07:45:30;96536.81;;;7.26;84.47
53908;BME280;40469;47.998;7.794;2023-01-16T07:47:55;96536.69;;;7.29;85.00
53908;BME280;40469;47.998;7.794;2023-01-16T07:50:20;96547.13;;;7.28;86.42
53908;BME280;40469;47.998;7.794;2023-01-16T07:52:46;96537.63;;;7.27;86.06
53908;BME280;40469;47.998;7.794;2023-01-16T07:55:12;96521.34;;;7.23;86.51
53908;BME280;40469;47.998;7.794;2023-01-16T07:57:39;96533.41;;;7.24;86.99
53908;BME280;40469;47.998;7.794;2023-01-16T08:00:08;96531.63;;;7.26;87.90
53908;BME280;40469;47.998;7.794;2023-01-16T08:02:35;96521.97;;;7.30;86.26
53908;BME280;40469;47.998;7.794;2023-01-16T08:05:00;96521.88;;;7.33;85.11
53908;BME280;40469;47.998;7.794;2023-01-16T08:07:25;96528.19;;;7.26;88.05
53908;BME280;40469;47.998;7.794;2023-01-16T08:09:51;96513.50;;;7.25;89.38
53908;BME280;40469;47.998;7.794;2023-01-16T08:12:16;96513.78;;;7.40;87.07
53908;BME280;40469;47.998;7.794;2023-01-16T08:14:41;96517.31;;;7.39;88.35
53908;BME280;40469;47.998;7.794;2023-01-16T08:17:07;96480.34;;;7.33;90.51
53908;BME280;40469;47.998;7.794;2023-01-16T08:19:32;96495.97;;;7.31;89.88
53908;BME280;40469;47.998;7.794;2023-01-16T08:21:58;96498.59;;;7.30;88.54
53908;BME280;40469;47.998;7.794;2023-01-16T08:24:23;96484.66;;;7.32;90.54
53908;BME280;40469;47.998;7.794;2023-01-16T08:26:51;96510.94;;;7.23;95.87
53908;BME280;40469;47.998;7.794;2023-01-16T08:29:16;96525.97;;;6.90;100.00
53908;BME280;40469;47.998;7.794;2023-01-16T08:31:41;96516.19;;;6.73;100.00
53908;BME280;40469;47.998;7.794;2023-01-16T08:34:07;96515.44;;;6.69;100.00
53908;BME280;40469;47.998;7.794;2023-01-16T08:36:32;96528.50;;;6.66;100.00
53908;BME280;40469;47.998;7.794;2023-01-16T08:38:58;96526.31;;;6.54;100.00
53908;BME280;40469;47.998;7.794;2023-01-16T08:41:23;96530.59;;;6.55;100.00
53908;BME280;40469;47.998;7.794;2023-01-16T08:44:08;96525.91;;;6.39;100.00
53908;BME280;40469;47.998;7.794;2023-01-16T08:47:19;96531.63;;;6.22;100.00
53908;BME280;40469;47.998;7.794;2023-01-16T08:50:03;96534.69;;;6.07;100.00
53908;BME280;40469;47.998;7.794;2023-01-16T08:52:47;96516.56;;;6.07;100.00
53908;BME280;40469;47.998;7.794;2023-01-16T08:55:13;96524.53;;;6.01;100.00
53908;BME280;40469;47.998;7.794;2023-01-16T08:57:38;96503.81;;;6.01;100.00
53908;BME280;40469;47.998;7.794;2023-01-16T09:00:05;96498.25;;;5.85;100.00
53908;BME280;40469;47.998;7.794;2023-01-16T09:02:31;96497.63;;;5.77;100.00
53908;BME280;40469;47.998;7.794;2023-01-16T09:04:59;96490.84;;;5.73;100.00
53908;BME280;40469;47.998;7.794;2023-01-16T09:07:25;96504.19;;;5.59;100.00
53908;BME280;40469;47.998;7.794;2023-01-16T09:09:50;96490.34;;;5.61;100.00
53908;BME280;40469;47.998;7.794;2023-01-16T09:12:16;96494.78;;;5.56;100.00
53908;BME280;40469;47.998;7.794;2023-01-16T09:15:00;96491.41;;;5.54;100.00
53908;BME280;40469;47.998;7.794;2023-01-16T09:17:27;96488.19;;;5.46;100.00
53908;BME280;40469;47.998;7.794;2023-01-16T09:19:52;96493.84;;;5.59;100.00
53908;BME280;40469;47.998;7.794;2023-01-16T09:22:18;96494.03;;;5.53;100.00
53908;BME280;40469;47.998;7.794;2023-01-16T09:24:43;96493.81;;;5.30;100.00
53908;BME280;40469;47.998;7.794;2023-01-16T09:27:10;96505.13;;;5.26;100.00
53908;BME280;40469;47.998;7.794;2023-01-16T09:29:35;96499.28;;;5.20;100.00
53908;BME280;40469;47.998;7.794;2023-01-16T09:32:00;96509.84;;;5.12;100.00
53908;BME280;40469;47.998;7.794;2023-01-16T09:34:32;96501.66;;;4.96;100.00
53908;BME280;40469;47.998;7.794;2023-01-16T09:36:58;96489.88;;;4.86;100.00
53908;BME280;40469;47.998;7.794;2023-01-16T09:39:23;96483.22;;;4.77;100.00
53908;BME280;40469;47.998;7.794;2023-01-16T09:44:51;96476.34;;;4.76;100.00
53908;BME280;40469;47.998;7.794;2023-01-16T09:47:22;96480.72;;;4.74;100.00
53908;BME280;40469;47.998;7.794;2023-01-16T09:49:55;96484.31;;;4.68;100.00
53908;BME280;40469;47.998;7.794;2023-01-16T09:52:26;96474.94;;;4.64;100.00
53908;BME280;40469;47.998;7.794;2023-01-16T09:55:28;96489.06;;;4.51;100.00
53908;BME280;40469;47.998;7.794;2023-01-16T09:58:18;96479.00;;;4.40;100.00
53908;BME280;40469;47.998;7.794;2023-01-16T10:01:00;96473.22;;;4.30;100.00
53908;BME280;40469;47.998;7.794;2023-01-16T10:03:26;96477.41;;;4.36;100.00
53908;BME280;40469;47.998;7.794;2023-01-16T10:06:01;96465.34;;;4.35;100.00
53908;BME280;40469;47.998;7.794;2023-01-16T10:14:13;96457.28;;;4.47;100.00
53908;BME280;40469;47.998;7.794;2023-01-16T10:21:41;96446.34;;;4.70;100.00
53908;BME280;40469;47.998;7.794;2023-01-16T10:27:48;96451.34;;;4.77;100.00
53908;BME280;40469;47.998;7.794;2023-01-16T10:29:57;96435.13;;;4.71;100.00
53908;BME280;40469;47.998;7.794;2023-01-16T10:34:55;96423.88;;;5.04;100.00
53908;BME280;40469;47.998;7.794;2023-01-16T10:37:22;96422.41;;;4.95;100.00
53908;BME280;40469;47.998;7.794;2023-01-16T10:39:50;96415.06;;;4.80;100.00
53908;BME280;40469;47.998;7.794;2023-01-16T10:42:19;96404.31;;;4.64;100.00
53908;BME280;40469;47.998;7.794;2023-01-16T10:47:50;96400.81;;;4.33;100.00
53908;BME280;40469;47.998;7.794;2023-01-16T10:50:35;96378.84;;;4.18;100.00
53908;BME280;40469;47.998;7.794;2023-01-16T10:53:02;96366.13;;;4.09;100.00
53908;BME280;40469;47.998;7.794;2023-01-16T10:55:27;96352.44;;;4.07;100.00
53908;BME280;40469;47.998;7.794;2023-01-16T10:57:56;96350.13;;;4.29;100.00
53908;BME280;40469;47.998;7.794;2023-01-16T11:00:25;96354.16;;;4.40;100.00
53908;BME280;40469;47.998;7.794;2023-01-16T11:02:58;96347.84;;;4.50;100.00
53908;BME280;40469;47.998;7.794;2023-01-16T11:05:26;96326.13;;;4.57;100.00
53908;BME280;40469;47.998;7.794;2023-01-16T11:08:18;96325.03;;;4.94;100.00
53908;BME280;40469;47.998;7.794;2023-01-16T11:10:48;96318.84;;;5.00;100.00
53908;BME280;40469;47.998;7.794;2023-01-16T11:13:20;96305.56;;;5.10;100.00
53908;BME280;40469;47.998;7.794;2023-01-16T11:16:19;96300.91;;;5.22;100.00
53908;BME280;40469;47.998;7.794;2023-01-16T11:19:24;96306.44;;;5.38;100.00
53908;BME280;40469;47.998;7.794;2023-01-16T11:21:58;96286.44;;;5.43;100.00
53908;BME280;40469;47.998;7.794;2023-01-16T11:24:34;96292.16;;;5.79;100.00
53908;BME280;40469;47.998;7.794;2023-01-16T11:27:01;96283.31;;;5.85;100.00
53908;BME280;40469;47.998;7.794;2023-01-16T11:29:32;96268.19;;;5.99;100.00
53908;BME280;40469;47.998;7.794;2023-01-16T11:32:05;96250.41;;;6.14;100.00
53908;BME280;40469;47.998;7.794;2023-01-16T11:34:31;96236.25;;;6.22;100.00
53908;BME280;40469;47.998;7.794;2023-01-16T11:36:59;96234.94;;;6.36;100.00
53908;BME280;40469;47.998;7.794;2023-01-16T11:39:29;96224.06;;;6.50;100.00
53908;BME280;40469;47.998;7.794;2023-01-16T11:41:57;96209.44;;;6.71;100.00
53908;BME280;40469;47.998;7.794;2023-01-16T11:44:27;96214.00;;;6.86;100.00
53908;BME280;40469;47.998;7.794;2023-01-16T11:47:15;96206.69;;;6.96;100.00
53908;BME280;40469;47.998;7.794;2023-01-16T11:49:46;96203.69;;;7.07;100.00
53908;BME280;40469;47.998;7.794;2023-01-16T11:52:21;96199.16;;;7.12;100.00
53908;BME280;40469;47.998;7.794;2023-01-16T11:54:54;96186.06;;;7.15;100.00
53908;BME280;40469;47.998;7.794;2023-01-16T11:59:52;96196.22;;;7.19;100.00
53908;BME280;40469;47.998;7.794;2023-01-16T12:05:25;96171.25;;;7.37;100.00
53908;BME280;40469;47.998;7.794;2023-01-16T12:11:07;96160.38;;;7.29;100.00
53908;BME280;40469;47.998;7.794;2023-01-16T12:14:05;96146.22;;;6.95;100.00
53908;BME280;40469;47.998;7.794;2023-01-16T12:23:01;96169.19;;;6.60;100.00
53908;BME280;40469;47.998;7.794;2023-01-16T12:25:44;96158.69;;;6.41;100.00
53908;BME280;40469;47.998;7.794;2023-01-16T12:45:27;96140.06;;;6.54;100.00
53908;BME280;40469;47.998;7.794;2023-01-16T12:50:50;96124.91;;;6.21;100.00
53908;BME280;40469;47.998;7.794;2023-01-16T12:58:31;96114.91;;;5.64;100.00
53908;BME280;40469;47.998;7.794;2023-01-16T13:01:18;96095.81;;;5.43;100.00
53908;BME280;40469;47.998;7.794;2023-01-16T13:03:55;96073.38;;;5.44;100.00
53908;BME280;40469;47.998;7.794;2023-01-16T13:06:36;96060.84;;;5.57;100.00
53908;BME280;40469;47.998;7.794;2023-01-16T13:09:04;96063.81;;;5.69;100.00
53908;BME280;40469;47.998;7.794;2023-01-16T13:11:55;96046.72;;;5.87;100.00
53908;BME280;40469;47.998;7.794;2023-01-16T13:14:41;96036.91;;;5.97;100.00
53908;BME280;40469;47.998;7.794;2023-01-16T13:17:14;96046.19;;;6.03;100.00
53908;BME280;40469;47.998;7.794;2023-01-16T13:19:43;96028.34;;;6.17;100.00
53908;BME280;40469;47.998;7.794;2023-01-16T13:22:23;96038.03;;;6.34;100.00
53908;BME280;40469;47.998;7.794;2023-01-16T13:24:57;96045.16;;;6.51;100.00
53908;BME280;40469;47.998;7.794;2023-01-16T13:30:05;96019.63;;;6.83;100.00
53908;BME280;40469;47.998;7.794;2023-01-16T13:32:37;96024.22;;;6.97;100.00
53908;BME280;40469;47.998;7.794;2023-01-16T13:35:30;95997.84;;;7.08;100.00
53908;BME280;40469;47.998;7.794;2023-01-16T13:38:38;96003.44;;;7.17;100.00
53908;BME280;40469;47.998;7.794;2023-01-16T13:44:20;96025.91;;;7.18;100.00
53908;BME280;40469;47.998;7.794;2023-01-16T13:47:11;95985.94;;;7.22;100.00
53908;BME280;40469;47.998;7.794;2023-01-16T13:49:38;95993.16;;;7.35;100.00
53908;BME280;40469;47.998;7.794;2023-01-16T13:52:16;95980.41;;;7.49;100.00
53908;BME280;40469;47.998;7.794;2023-01-16T13:54:44;95982.94;;;7.51;100.00
53908;BME280;40469;47.998;7.794;2023-01-16T13:57:17;95980.19;;;7.54;100.00
53908;BME280;40469;47.998;7.794;2023-01-16T13:59:49;95977.88;;;7.48;100.00
53908;BME280;40469;47.998;7.794;2023-01-16T14:08:16;95984.69;;;7.31;100.00
53908;BME280;40469;47.998;7.794;2023-01-16T14:11:14;96018.13;;;7.18;100.00
53908;BME280;40469;47.998;7.794;2023-01-16T14:13:40;96038.34;;;6.90;100.00
53908;BME280;40469;47.998;7.794;2023-01-16T14:21:25;96033.44;;;5.98;100.00
53908;BME280;40469;47.998;7.794;2023-01-16T14:23:57;96033.94;;;6.06;100.00
53908;BME280;40469;47.998;7.794;2023-01-16T14:26:37;96046.22;;;6.01;100.00
53908;BME280;40469;47.998;7.794;2023-01-16T14:29:30;96026.25;;;5.81;100.00
53908;BME280;40469;47.998;7.794;2023-01-16T14:32:04;96071.31;;;5.77;100.00
53908;BME280;40469;47.998;7.794;2023-01-16T14:34:44;96065.97;;;5.58;100.00
53908;BME280;40469;47.998;7.794;2023-01-16T14:37:19;96074.06;;;5.49;100.00
53908;BME280;40469;47.998;7.794;2023-01-16T14:39:50;96070.81;;;5.19;100.00
53908;BME280;40469;47.998;7.794;2023-01-16T14:42:31;96085.50;;;4.93;100.00
53908;BME280;40469;47.998;7.794;2023-01-16T14:45:40;96068.97;;;4.72;100.00
53908;BME280;40469;47.998;7.794;2023-01-16T14:56:58;96054.59;;;4.88;100.00
53908;BME280;40469;47.998;7.794;2023-01-16T15:02:27;96067.13;;;5.01;100.00
53908;BME280;40469;47.998;7.794;2023-01-16T15:07:37;96075.66;;;5.28;100.00
53908;BME280;40469;47.998;7.794;2023-01-16T15:10:09;96069.88;;;5.21;100.00
53908;BME280;40469;47.998;7.794;2023-01-16T15:12:41;96071.34;;;5.28;100.00
53908;BME280;40469;47.998;7.794;2023-01-16T15:15:21;96071.66;;;5.19;100.00
53908;BME280;40469;47.998;7.794;2023-01-16T15:17:49;96088.44;;;5.07;100.00
53908;BME280;40469;47.998;7.794;2023-01-16T15:20:35;96089.66;;;4.97;100.00
53908;BME280;40469;47.998;7.794;2023-01-16T15:23:29;96076.81;;;4.94;100.00
53908;BME280;40469;47.998;7.794;2023-01-16T15:31:15;96113.78;;;4.71;100.00
53908;BME280;40469;47.998;7.794;2023-01-16T15:33:43;96118.91;;;4.72;100.00
53908;BME280;40469;47.998;7.794;2023-01-16T15:39:00;96128.25;;;4.77;100.00